Map

Track Data

SID SEASON NUMBER BASIN SUBBASIN NAME ISO_TIME NATURE LAT LON WMO_WIND WMO_PRES WMO_AGENCY TRACK_TYPE DIST2LAND LANDFALL IFLAG USA_AGENCY USA_ATCF_ID USA_LAT USA_LON USA_RECORD USA_STATUS USA_WIND USA_PRES USA_SSHS USA_R34_NE USA_R34_SE USA_R34_SW USA_R34_NW USA_R50_NE USA_R50_SE USA_R50_SW USA_R50_NW USA_R64_NE USA_R64_SE USA_R64_SW USA_R64_NW USA_POCI USA_ROCI USA_RMW USA_EYE TOKYO_LAT TOKYO_LON TOKYO_GRADE TOKYO_WIND TOKYO_PRES TOKYO_R50_DIR TOKYO_R50_LONG TOKYO_R50_SHORT TOKYO_R30_DIR TOKYO_R30_LONG TOKYO_R30_SHORT TOKYO_LAND CMA_LAT CMA_LON CMA_CAT CMA_WIND CMA_PRES HKO_LAT HKO_LON HKO_CAT HKO_WIND HKO_PRES NEWDELHI_LAT NEWDELHI_LON NEWDELHI_GRADE NEWDELHI_WIND NEWDELHI_PRES NEWDELHI_CI NEWDELHI_DP NEWDELHI_POCI REUNION_LAT REUNION_LON REUNION_TYPE REUNION_WIND REUNION_PRES REUNION_TNUM REUNION_CI REUNION_RMW REUNION_R34_NE REUNION_R34_SE REUNION_R34_SW REUNION_R34_NW REUNION_R50_NE REUNION_R50_SE REUNION_R50_SW REUNION_R50_NW REUNION_R64_NE REUNION_R64_SE REUNION_R64_SW REUNION_R64_NW BOM_LAT BOM_LON BOM_TYPE BOM_WIND BOM_PRES BOM_TNUM BOM_CI BOM_RMW BOM_R34_NE BOM_R34_SE BOM_R34_SW BOM_R34_NW BOM_R50_NE BOM_R50_SE BOM_R50_SW BOM_R50_NW BOM_R64_NE BOM_R64_SE BOM_R64_SW BOM_R64_NW BOM_ROCI BOM_POCI BOM_EYE BOM_POS_METHOD BOM_PRES_METHOD NADI_LAT NADI_LON NADI_CAT NADI_WIND NADI_PRES WELLINGTON_LAT WELLINGTON_LON WELLINGTON_WIND WELLINGTON_PRES DS824_LAT DS824_LON DS824_STAGE DS824_WIND DS824_PRES TD9636_LAT TD9636_LON TD9636_STAGE TD9636_WIND TD9636_PRES TD9635_LAT TD9635_LON TD9635_WIND TD9635_PRES TD9635_ROCI NEUMANN_LAT NEUMANN_LON NEUMANN_CLASS NEUMANN_WIND NEUMANN_PRES MLC_LAT MLC_LON MLC_CLASS MLC_WIND MLC_PRES USA_GUST BOM_GUST BOM_GUST_PER REUNION_GUST REUNION_GUST_PER USA_SEAHGT USA_SEARAD_NE USA_SEARAD_SE USA_SEARAD_SW USA_SEARAD_NW STORM_SPEED STORM_DIR
1966331N13130 1966 114 WP MM NOT_NAMED 1966-11-27 00:00:00 TS 12.5000 130.000 main 487 392 __O___________ -1 12.5000 130.000 0 1008 19 272
1966331N13130 1966 114 WP MM NOT_NAMED 1966-11-27 03:00:00 TS 12.5256 129.007 main 381 286 __P___________ -1 12.5256 129.007 0 1007 20 273
1966331N13130 1966 114 WP MM NOT_NAMED 1966-11-27 06:00:00 TS 12.6000 128.000 main 275 176 __O___________ -1 12.6000 128.000 1 23 1007 20 277
1966331N13130 1966 114 WP MM NOT_NAMED 1966-11-27 09:00:00 TS 12.7624 126.978 main 176 109 __P___________ -1 12.7624 126.978 1 23 1007 20 282
1966331N13130 1966 114 WP MM NOT_NAMED 1966-11-27 12:00:00 TS 13.0000 126.000 main 101 70 __O___________ -1 13.0000 126.000 1 23 1007 19 285
1966331N13130 1966 114 WP MM NOT_NAMED 1966-11-27 15:00:00 TS 13.2473 125.097 main 78 0 __P___________ -1 13.2473 125.097 1 23 1007 18 290
1966331N13130 1966 114 WP MM NOT_NAMED 1966-11-27 18:00:00 TS 13.6000 124.300 main 0 0 __O___________ -1 13.6000 124.300 1 23 1007 17 300
1966331N13130 1966 114 WP MM NOT_NAMED 1966-11-27 21:00:00 TS 14.0973 123.583 main 22 22 __P___________ -1 14.0973 123.583 1 23 1007 17 311
1966331N13130 1966 114 WP MM NOT_NAMED 1966-11-28 00:00:00 TS 14.7000 123.000 main 57 57 __O___________ -1 14.7000 123.000 1 23 1007 16 323
1966331N13130 1966 114 WP MM NOT_NAMED 1966-11-28 03:00:00 TS 15.3720 122.585 main 92 15 __P___________ -1 15.3720 122.585 1 23 1005 15 329
1966331N13130 1966 114 WP MM NOT_NAMED 1966-11-28 06:00:00 TS 16.0000 122.200 main 15 0 __O___________ -1 16.0000 122.200 1 23 1004 15 322
1966331N13130 1966 114 WP MM NOT_NAMED 1966-11-28 09:00:00 TS 16.5276 121.658 main 0 0 __P___________ -1 16.5276 121.658 1 23 1004 13 307
1966331N13130 1966 114 WP MM NOT_NAMED 1966-11-28 12:00:00 TS 16.8000 121.100 main 0 0 __O___________ -1 16.8000 121.100 1 23 1004 10 279
1966331N13130 1966 114 WP MM NOT_NAMED 1966-11-28 15:00:00 TS 16.6823 120.634 main 0 0 __P___________ -1 16.6823 120.634 1 23 1004 10 245
1966331N13130 1966 114 WP MM NOT_NAMED 1966-11-28 18:00:00 TS 16.4000 120.200 main 21 0 __O___________ -1 16.4000 120.200 1 23 1004 10 244
1966331N13130 1966 114 WP MM NOT_NAMED 1966-11-28 21:00:00 TS 16.2575 119.735 main 10 10 __P___________ -1 16.2575 119.735 1 23 1004 9 251
1966331N13130 1966 114 WP MM NOT_NAMED 1966-11-29 00:00:00 TS 16.1000 119.300 main 44 44 __O___________ -1 16.1000 119.300 1 23 1004 9 243
1966331N13130 1966 114 WP MM NOT_NAMED 1966-11-29 03:00:00 TS 15.8649 118.920 main 86 86 __P___________ -1 15.8649 118.920 1 26 1004 8 233
1966331N13130 1966 114 WP MM NOT_NAMED 1966-11-29 06:00:00 TS 15.6000 118.600 main 125 125 __O___________ -1 15.6000 118.600 1 29 1004 8 229
1966331N13130 1966 114 WP MM NOT_NAMED 1966-11-29 09:00:00 TS 15.3575 118.305 main 164 164 __P___________ -1 15.3575 118.305 1 29 1004 7 224
1966331N13130 1966 114 WP MM NOT_NAMED 1966-11-29 12:00:00 TS 15.1000 118.100 main 196 196 __O___________ -1 15.1000 118.100 1 29 1004 6 209
1966331N13130 1966 114 WP MM NOT_NAMED 1966-11-29 15:00:00 TS 14.8374 118.005 main 214 214 __P___________ -1 14.8374 118.005 1 29 1004 6 189
1966331N13130 1966 114 WP MM NOT_NAMED 1966-11-29 18:00:00 TS 14.5000 118.000 main 227 227 __O___________ -1 14.5000 118.000 1 29 1004 8 177
1966331N13130 1966 114 WP MM NOT_NAMED 1966-11-29 21:00:00 TS 14.0150 118.035 main 243 237 __P___________ -1 14.0150 118.035 1 29 1004 10 174
1966331N13130 1966 114 WP MM NOT_NAMED 1966-11-30 00:00:00 TS 13.5000 118.100 main 238 229 __O___________ -1 13.5000 118.100 1 29 1005 10 173
1966331N13130 1966 114 WP MM NOT_NAMED 1966-11-30 03:00:00 TS 13.0775 118.158 main 229 211 __P___________ -1 13.0775 118.158 1 29 1005 8 173
1966331N13130 1966 114 WP MM NOT_NAMED 1966-11-30 06:00:00 TS 12.7000 118.200 main 211 179 __O___________ -1 12.7000 118.200 1 29 1005 8 175
1966331N13130 1966 114 WP MM NOT_NAMED 1966-11-30 09:00:00 TS 12.3275 118.230 main 179 158 __P___________ -1 12.3275 118.230 1 29 1005 7 0
1966331N13130 1966 114 WP MM NOT_NAMED 1966-11-30 12:00:00 TS 12.0000 118.200 main 158 152 __O___________ -1 12.0000 118.200 1 29 1005 6 193
1966331N13130 1966 114 WP MM NOT_NAMED 1966-11-30 15:00:00 TS 11.7500 118.095 main 152 152 __P___________ -1 11.7500 118.095 1 1005 6 210
1966331N13130 1966 114 WP MM NOT_NAMED 1966-11-30 18:00:00 TS 11.5000 117.900 main 166 162 __O___________ -1 11.5000 117.900 0 1006 7 218
1966331N13130 1966 114 WP MM NOT_NAMED 1966-11-30 21:00:00 TS 11.1650 117.630 main 180 172 __P___________ -1 11.1650 117.630 0 1006 9 220
1966331N13130 1966 114 WP MM NOT_NAMED 1966-12-01 00:00:00 TS 10.8000 117.300 main 180 164 __O___________ -1 10.8000 117.300 0 1007 10 222
1966331N13130 1966 114 WP MM NOT_NAMED 1966-12-01 03:00:00 TS 10.4499 116.973 main 160 156 __P___________ -1 10.4499 116.973 0 1007 10 225
1966331N13130 1966 114 WP MM NOT_NAMED 1966-12-01 06:00:00 TS 10.1000 116.600 main 164 164 __O___________ -1 10.1000 116.600 0 1007 11 229
1966331N13130 1966 114 WP MM NOT_NAMED 1966-12-01 09:00:00 TS 9.75016 116.167 main 174 174 __P___________ -1 9.75016 116.167 0 1007 11 232
1966331N13130 1966 114 WP MM NOT_NAMED 1966-12-01 12:00:00 TS 9.40000 115.700 main 197 __O___________ -1 9.40000 115.700 0 1008 12 233

Digital Typhoon Data and Search

About IBTrACS Database

This database is a web-friendly format of International Best Track Archive for Climate Stewardship (IBTrACS), a global best track data archive curated by NOAA dating back to 1842.

Updated: 2021-12-03